Decoded Metar for LFRZ (ST.-NAZAIRE in FRANCE) (IATA:SNR) | Meteo·Mobile Aviation Weather
aviador You're here:

LFRZ Decoded Metar

ST.-NAZAIRE in FRANCE
Report Time2018-10-18 15:30:00
UTC Time2018-10-18 15:47:23
Flight Rules vfr VFR
Wind020° at 14 kt
W.Decomp.*RWY 08: 7.4 kt HW 11.9 kt LCW
W.Rank020° ranks 9
Current wind is above 020° avg. (6.3)
Visibility9999 m
Phenomena:N/A
Clouds:N/A
Expected CloudBase > 4,000 ft AGL from Temp-Dew spread
CeilingNone
Temp21°C (ISA +6)
Dew Point11°C (53% RH)
AAT16.3°C
QNH1018 hPa
Density Alt725 ft
Elevation13 ft
Report Wrong Elevation
Raw Report
METAR LFRZ 181530Z AUTO 02014KT CAVOK 21/11 Q1018 NOSIG=

Extra information for LFRZ:More info

Metar Taf Metar & Taf Last 4 Metars F.Rules Stats Wind Profile Meteogram Temp Stats Airport Information Weather charts Add Link Nearby VenuesMetar ALERT Operation Metar Decoded Social comments